Time;durP1;ratioP1;P1;durP2;ratioP2;P2;SDS_P1;SDS_P2;PMS_P1;PMS_P2;Temp;Humidity;BMP_temperature;BMP_pressure;BME280_temperature;BME280_humidity;BME280_pressure;Samples;Min_cycle;Max_cycle;Signal;HPM_P1;HPM_P2
2020/04/21 00:00:17;;;;;;;8.4;5.7;;;;;;;9.97;77.9375;933.0967;;;;
2020/04/21 00:02:52;;;;;;;8.3;5.5;;;;;;;9.91;78.25684;933.0392;;;;
2020/04/21 00:04:36;;;;;;;7.1;5.4;;;;;;;9.95;78.07031;933.1014;;;;
2020/04/21 00:07:02;;;;;;;8.2;5.7;;;;;;;10;77.69238;933.1096;;;;
2020/04/21 00:10:02;;;;;;;9.2;6;;;;;;;9.91;77.73438;933.0592;;;;
2020/04/21 00:11:43;;;;;;;10.3;5.6;;;;;;;9.86;77.83691;933.0455;;;;
2020/04/21 00:17:27;;;;;;;8.9;5.5;;;;;;;9.83;77.47852;932.9094;;;;
2020/04/21 00:19:10;;;;;;;8;5.6;;;;;;;9.81;78.10059;932.9257;;;;
2020/04/21 00:22:39;;;;;;;9.4;6;;;;;;;9.83;78.06055;932.884;;;;
2020/04/21 00:23:56;;;;;;;8.3;5.5;;;;;;;9.85;77.82422;932.8267;;;;
2020/04/21 00:26:27;;;;;;;11.3;5.7;;;;;;;9.74;78.5;932.7665;;;;
2020/04/21 00:28:45;;;;;;;11.7;5.7;;;;;;;9.71;78.75488;932.8212;;;;
2020/04/21 00:33:49;;;;;;;8;5.3;;;;;;;9.68;79.16211;932.7822;;;;
2020/04/21 00:36:10;;;;;;;9.4;5.7;;;;;;;9.67;79.53516;932.7845;;;;
2020/04/21 00:39:03;;;;;;;9.1;5.8;;;;;;;9.58;79.91895;932.7179;;;;
2020/04/21 00:41:10;;;;;;;8.9;5.9;;;;;;;9.6;80.6377;932.6298;;;;
2020/04/21 00:43:20;;;;;;;9.4;6.1;;;;;;;9.55;80.81152;932.5319;;;;
2020/04/21 00:48:18;;;;;;;9.1;6.3;;;;;;;9.56;80.66504;932.601;;;;
2020/04/21 01:00:16;;;;;;;8.1;5.8;;;;;;;9.56;78.42285;932.6169;;;;
2020/04/21 01:05:12;;;;;;;10.1;5.9;;;;;;;9.47;78.5625;932.5808;;;;
2020/04/21 01:10:13;;;;;;;9.5;5.6;;;;;;;9.31;77.94434;932.5988;;;;
2020/04/21 01:12:38;;;;;;;12;6.5;;;;;;;9.19;78.7168;932.6297;;;;
2020/04/21 01:15:05;;;;;;;8.7;5.5;;;;;;;9.2;79.06152;932.6742;;;;
2020/04/21 01:18:28;;;;;;;10.3;6.5;;;;;;;9.14;77.86816;932.647;;;;
2020/04/21 01:24:49;;;;;;;10.9;6.5;;;;;;;8.86;79.375;932.7045;;;;
2020/04/21 01:32:18;;;;;;;9.8;6.6;;;;;;;8.74;80.82031;932.6732;;;;
2020/04/21 01:34:25;;;;;;;10.6;7;;;;;;;8.71;81.0166;932.5999;;;;
2020/04/21 01:36:48;;;;;;;11.7;7;;;;;;;8.61;81.68164;932.6323;;;;
2020/04/21 01:39:18;;;;;;;9.9;6.6;;;;;;;8.76;81.05078;932.6281;;;;
2020/04/21 01:44:37;;;;;;;9;6.7;;;;;;;8.69;81.25586;932.6887;;;;
2020/04/21 01:46:47;;;;;;;9.9;7.4;;;;;;;8.55;82.30566;932.5795;;;;
2020/04/21 01:50:08;;;;;;;10.9;7.5;;;;;;;8.51;82.6875;932.6911;;;;
2020/04/21 01:51:55;;;;;;;10.8;7.6;;;;;;;8.54;83.02051;932.6539;;;;
2020/04/21 01:53:51;;;;;;;9.2;7.3;;;;;;;8.6;82.45313;932.5751;;;;
2020/04/21 01:56:11;;;;;;;9.4;7.4;;;;;;;8.59;82.72266;932.606;;;;
2020/04/21 02:01:01;;;;;;;10.5;7.5;;;;;;;8.66;82.06543;932.5869;;;;
2020/04/21 02:13:15;;;;;;;11.6;6.3;;;;;;;8.71;81.80273;932.4738;;;;
2020/04/21 02:17:08;;;;;;;11.6;6.4;;;;;;;8.68;82.13672;932.4998;;;;
2020/04/21 02:18:10;;;;;;;12.2;6.8;;;;;;;8.64;82.50488;932.5193;;;;
2020/04/21 02:20:44;;;;;;;8.9;6.4;;;;;;;8.65;82.31348;932.4766;;;;
2020/04/21 02:25:16;;;;;;;10.6;6.3;;;;;;;8.8;81.68359;932.4339;;;;
2020/04/21 02:28:19;;;;;;;7.8;6.1;;;;;;;8.83;81.49512;932.3962;;;;
2020/04/21 02:32:35;;;;;;;9.6;6;;;;;;;8.72;82.03223;932.3484;;;;
2020/04/21 02:35:28;;;;;;;10;6.4;;;;;;;8.69;82.27734;932.3967;;;;
2020/04/21 02:37:33;;;;;;;9.4;5.9;;;;;;;8.77;82.14258;932.3923;;;;
2020/04/21 02:39:56;;;;;;;11.8;7;;;;;;;8.65;82.38184;932.3932;;;;
2020/04/21 02:42:19;;;;;;;10.2;6.8;;;;;;;8.69;82.64063;932.3259;;;;
2020/04/21 02:44:46;;;;;;;10.5;6.5;;;;;;;8.61;82.72754;932.3434;;;;
2020/04/21 02:47:02;;;;;;;11;6.6;;;;;;;8.64;82.5293;932.3392;;;;
2020/04/21 02:49:39;;;;;;;10.3;6.3;;;;;;;8.83;81.92773;932.2232;;;;
2020/04/21 02:52:03;;;;;;;9.4;6;;;;;;;8.79;81.35156;932.1719;;;;
2020/04/21 02:56:46;;;;;;;10.1;6.4;;;;;;;8.65;81.31348;932.1415;;;;
2020/04/21 02:59:25;;;;;;;8.6;6.5;;;;;;;8.52;81.82324;932.2031;;;;
2020/04/21 03:01:37;;;;;;;9.5;6.6;;;;;;;8.46;82.2998;932.1678;;;;
2020/04/21 03:04:07;;;;;;;8.9;6.5;;;;;;;8.45;82.30957;932.1511;;;;
2020/04/21 03:09:01;;;;;;;9.4;6.6;;;;;;;8.43;82.07715;932.085;;;;
2020/04/21 03:11:50;;;;;;;9.5;6.6;;;;;;;8.42;81.95215;932.0446;;;;
2020/04/21 03:16:18;;;;;;;10.1;6.9;;;;;;;8.36;82.3623;932.0542;;;;
2020/04/21 03:18:57;;;;;;;10.2;6.6;;;;;;;8.32;82.41016;932.0234;;;;
2020/04/21 03:21:45;;;;;;;7.5;5.9;;;;;;;8.31;82.125;931.9511;;;;
2020/04/21 03:23:52;;;;;;;11.3;7.1;;;;;;;8.19;81.2959;932.0451;;;;
2020/04/21 03:28:25;;;;;;;8.3;6.7;;;;;;;7.75;83.27734;932.081;;;;
2020/04/21 03:30:49;;;;;;;9.9;6.9;;;;;;;7.79;82.94434;932.098;;;;
2020/04/21 03:33:28;;;;;;;9.8;7.2;;;;;;;7.76;83.21094;932.0732;;;;
2020/04/21 03:35:37;;;;;;;12;7.7;;;;;;;7.67;84.10059;932.0549;;;;
2020/04/21 03:40:19;;;;;;;12.8;7.7;;;;;;;7.6;83.88477;932.0658;;;;
2020/04/21 03:42:44;;;;;;;12.1;7.7;;;;;;;7.56;84.23633;932.051;;;;
2020/04/21 03:45:10;;;;;;;12.8;7.7;;;;;;;7.59;84.2002;932.0229;;;;
2020/04/21 03:47:35;;;;;;;12.1;7.8;;;;;;;7.73;83.69336;932.019;;;;
2020/04/21 03:50:02;;;;;;;13.5;7.8;;;;;;;7.66;84.13086;932.0792;;;;
2020/04/21 03:52:27;;;;;;;13.8;8;;;;;;;;;;;;;
2020/04/21 03:54:52;;;;;;;14.4;8.5;;;;;;;;;;;;;
2020/04/21 03:57:17;;;;;;;12.5;8.2;;;;;;;;;;;;;
2020/04/21 03:59:44;;;;;;;14.4;8;;;;;;;;;;;;;
2020/04/21 04:02:30;;;;;;;12.2;7.9;;;;;;;;;;;;;
2020/04/21 04:04:55;;;;;;;16.5;8;;;;;;;;;;;;;
2020/04/21 04:07:20;;;;;;;16.7;8.2;;;;;;;;;;;;;
2020/04/21 04:09:45;;;;;;;15.2;8.1;;;;;;;;;;;;;
2020/04/21 04:12:10;;;;;;;13.9;8.2;;;;;;;;;;;;;
2020/04/21 04:14:36;;;;;;;14.6;7.8;;;;;;;;;;;;;
2020/04/21 04:17:01;;;;;;;15;8.3;;;;;;;;;;;;;
2020/04/21 04:19:27;;;;;;;12;7.9;;;;;;;;;;;;;
2020/04/21 04:21:52;;;;;;;12.3;8.2;;;;;;;;;;;;;
2020/04/21 04:24:17;;;;;;;11.9;7.8;;;;;;;;;;;;;
2020/04/21 04:26:42;;;;;;;14.4;8.1;;;;;;;;;;;;;
2020/04/21 04:29:08;;;;;;;13.4;8;;;;;;;;;;;;;
2020/04/21 04:31:33;;;;;;;14.1;8.1;;;;;;;;;;;;;
2020/04/21 04:33:59;;;;;;;13.1;7;;;;;;;;;;;;;
2020/04/21 04:36:24;;;;;;;14.7;7.9;;;;;;;;;;;;;
2020/04/21 04:38:50;;;;;;;11.3;7.8;;;;;;;;;;;;;
2020/04/21 04:41:15;;;;;;;13.1;7.8;;;;;;;;;;;;;
2020/04/21 04:43:41;;;;;;;11.7;8;;;;;;;;;;;;;
2020/04/21 04:46:06;;;;;;;13.7;8.3;;;;;;;;;;;;;
2020/04/21 04:48:32;;;;;;;12.1;8.3;;;;;;;;;;;;;
2020/04/21 04:50:57;;;;;;;14.9;8.2;;;;;;;;;;;;;
2020/04/21 04:53:23;;;;;;;14;8.7;;;;;;;;;;;;;
2020/04/21 04:55:48;;;;;;;12.5;8;;;;;;;;;;;;;
2020/04/21 04:58:14;;;;;;;12.9;7.9;;;;;;;;;;;;;
2020/04/21 05:00:39;;;;;;;15;7.9;;;;;;;;;;;;;
2020/04/21 05:03:04;;;;;;;15.7;8.3;;;;;;;;;;;;;
2020/04/21 05:05:29;;;;;;;16;8.2;;;;;;;;;;;;;
2020/04/21 05:07:55;;;;;;;11.3;8.8;;;;;;;;;;;;;
2020/04/21 05:10:20;;;;;;;12.5;8.1;;;;;;;;;;;;;
2020/04/21 05:12:45;;;;;;;14.6;8.8;;;;;;;;;;;;;
2020/04/21 05:15:11;;;;;;;11.5;7.9;;;;;;;;;;;;;
2020/04/21 05:17:36;;;;;;;13.8;7.5;;;;;;;;;;;;;
2020/04/21 05:20:02;;;;;;;14.9;7.6;;;;;;;;;;;;;
2020/04/21 05:22:28;;;;;;;15.5;7.2;;;;;;;;;;;;;
2020/04/21 05:24:53;;;;;;;15.4;8.1;;;;;;;;;;;;;
2020/04/21 05:27:18;;;;;;;16.3;9.5;;;;;;;;;;;;;
2020/04/21 05:29:43;;;;;;;17.4;9.4;;;;;;;;;;;;;
2020/04/21 05:32:09;;;;;;;18.6;9.7;;;;;;;;;;;;;
2020/04/21 05:34:34;;;;;;;23.8;9.3;;;;;;;;;;;;;
2020/04/21 05:36:59;;;;;;;17.8;8.3;;;;;;;;;;;;;
2020/04/21 05:39:24;;;;;;;20.2;8.4;;;;;;;;;;;;;
2020/04/21 05:41:50;;;;;;;29.1;8.3;;;;;;;;;;;;;
2020/04/21 05:44:15;;;;;;;28.5;9;;;;;;;;;;;;;
2020/04/21 05:46:41;;;;;;;32.3;9.4;;;;;;;;;;;;;
2020/04/21 05:49:06;;;;;;;36.7;9.3;;;;;;;;;;;;;
2020/04/21 05:51:32;;;;;;;36.1;9.3;;;;;;;;;;;;;
2020/04/21 05:53:58;;;;;;;29.3;8.4;;;;;;;;;;;;;
2020/04/21 05:56:23;;;;;;;22.9;8.1;;;;;;;;;;;;;
2020/04/21 05:58:48;;;;;;;20.7;7.8;;;;;;;;;;;;;
2020/04/21 06:01:13;;;;;;;17.7;7.2;;;;;;;;;;;;;
2020/04/21 06:03:39;;;;;;;17.8;7.2;;;;;;;;;;;;;
2020/04/21 06:06:04;;;;;;;12.7;6.6;;;;;;;;;;;;;
2020/04/21 06:08:29;;;;;;;10.9;6.5;;;;;;;;;;;;;
2020/04/21 06:10:54;;;;;;;11.2;6.6;;;;;;;;;;;;;
2020/04/21 06:13:19;;;;;;;12.1;6.9;;;;;;;;;;;;;
2020/04/21 06:15:44;;;;;;;15.4;7.7;;;;;;;;;;;;;
2020/04/21 06:18:09;;;;;;;11.5;6.8;;;;;;;;;;;;;
2020/04/21 06:20:34;;;;;;;17;7.8;;;;;;;;;;;;;
2020/04/21 06:23:01;;;;;;;13.7;6.9;;;;;;;;;;;;;
2020/04/21 06:25:25;;;;;;;13.4;7.2;;;;;;;;;;;;;
2020/04/21 06:27:50;;;;;;;12.2;7;;;;;;;;;;;;;
2020/04/21 06:30:15;;;;;;;14.8;6.5;;;;;;;;;;;;;
2020/04/21 06:32:41;;;;;;;9.7;6.3;;;;;;;;;;;;;
2020/04/21 06:35:06;;;;;;;10.8;6.3;;;;;;;;;;;;;
2020/04/21 06:37:31;;;;;;;13.2;6.2;;;;;;;;;;;;;
2020/04/21 06:39:57;;;;;;;13;6.4;;;;;;;;;;;;;
2020/04/21 06:42:22;;;;;;;8.5;5.5;;;;;;;;;;;;;
2020/04/21 06:44:48;;;;;;;9.6;5.9;;;;;;;;;;;;;
2020/04/21 06:47:13;;;;;;;8.5;5.5;;;;;;;;;;;;;
2020/04/21 06:49:39;;;;;;;8.1;5.5;;;;;;;;;;;;;
2020/04/21 06:52:04;;;;;;;7.4;5.6;;;;;;;;;;;;;
2020/04/21 06:54:29;;;;;;;7.4;5.3;;;;;;;;;;;;;
2020/04/21 06:56:54;;;;;;;10.5;5.9;;;;;;;;;;;;;
2020/04/21 06:59:19;;;;;;;11;5.8;;;;;;;;;;;;;
2020/04/21 07:01:45;;;;;;;12.3;5.9;;;;;;;;;;;;;
2020/04/21 07:04:09;;;;;;;11;5.5;;;;;;;;;;;;;
2020/04/21 07:06:36;;;;;;;8.1;5.2;;;;;;;;;;;;;
2020/04/21 07:09:02;;;;;;;9.5;5.6;;;;;;;;;;;;;
2020/04/21 07:11:28;;;;;;;8.9;5.5;;;;;;;;;;;;;
2020/04/21 07:13:53;;;;;;;9.9;5.6;;;;;;;;;;;;;
2020/04/21 07:16:18;;;;;;;6.4;4.9;;;;;;;;;;;;;
2020/04/21 07:18:44;;;;;;;9.6;5.7;;;;;;;;;;;;;
2020/04/21 07:21:10;;;;;;;10;5.4;;;;;;;;;;;;;
2020/04/21 07:23:35;;;;;;;8.5;5.4;;;;;;;;;;;;;
2020/04/21 07:26:01;;;;;;;8.1;5.2;;;;;;;;;;;;;
2020/04/21 07:30:51;;;;;;;10.1;5.6;;;;;;;;;;;;;
2020/04/21 07:36:03;;;;;;;11.4;5.7;;;;;;;;;;;;;
2020/04/21 07:41:40;;;;;;;8.7;5.5;;;;;;;;;;;;;
2020/04/21 07:43:05;;;;;;;8.5;5.4;;;;;;;;;;;;;
2020/04/21 07:52:52;;;;;;;8.1;5.5;;;;;;;;;;;;;
2020/04/21 08:02:28;;;;;;;8.9;5;;;;;;;;;;;;;
2020/04/21 08:07:39;;;;;;;7.3;4.7;;;;;;;;;;;;;
2020/04/21 08:17:15;;;;;;;8;4.3;;;;;;;;;;;;;
2020/04/21 08:19:59;;;;;;;8.5;4.5;;;;;;;;;;;;;
2020/04/21 08:21:46;;;;;;;7.1;4.3;;;;;;;;;;;;;
2020/04/21 08:26:54;;;;;;;8.8;4.2;;;;;;;;;;;;;
2020/04/21 08:33:54;;;;;;;6.8;4.3;;;;;;;;;;;;;
2020/04/21 08:36:23;;;;;;;8.3;4.2;;;;;;;;;;;;;
2020/04/21 08:39:27;;;;;;;8.3;4.1;;;;;;;;;;;;;
2020/04/21 08:41:29;;;;;;;9.4;4.3;;;;;;;;;;;;;
2020/04/21 08:44:05;;;;;;;6.6;4.1;;;;;;;;;;;;;
2020/04/21 08:48:44;;;;;;;7.4;4.3;;;;;;;;;;;;;
2020/04/21 08:53:38;;;;;;;6.7;4.3;;;;;;;;;;;;;
2020/04/21 08:58:50;;;;;;;5.9;4.3;;;;;;;;;;;;;
2020/04/21 09:00:50;;;;;;;7.2;4.6;;;;;;;;;;;;;
2020/04/21 09:03:47;;;;;;;11.3;4.8;;;;;;;;;;;;;
2020/04/21 09:07:15;;;;;;;8.1;4.5;;;;;;;;;;;;;
2020/04/21 09:08:08;;;;;;;8.7;4.6;;;;;;;;;;;;;
2020/04/21 09:10:24;;;;;;;8.7;4.7;;;;;;;;;;;;;
2020/04/21 09:12:48;;;;;;;10.2;4.9;;;;;;;;;;;;;
2020/04/21 09:15:28;;;;;;;7.9;4.8;;;;;;;;;;;;;
2020/04/21 09:17:48;;;;;;;10;5;;;;;;;;;;;;;
2020/04/21 09:20:07;;;;;;;9.4;4.8;;;;;;;;;;;;;
2020/04/21 09:22:33;;;;;;;7.4;4.4;;;;;;;;;;;;;
2020/04/21 09:27:26;;;;;;;7.9;4.6;;;;;;;;;;;;;
2020/04/21 09:32:41;;;;;;;7.3;4.4;;;;;;;;;;;;;
2020/04/21 09:37:23;;;;;;;7.7;4.6;;;;;;;;;;;;;
2020/04/21 09:39:36;;;;;;;8.8;5;;;;;;;;;;;;;
2020/04/21 09:46:45;;;;;;;6.7;4.3;;;;;;;;;;;;;
2020/04/21 09:51:32;;;;;;;8.5;4.6;;;;;;;;;;;;;
2020/04/21 09:57:37;;;;;;;8.4;4.6;;;;;;;;;;;;;
2020/04/21 10:01:14;;;;;;;10.4;4.7;;;;;;;;;;;;;
2020/04/21 10:03:57;;;;;;;40.4;16.4;;;;;;;;;;;;;
2020/04/21 10:06:17;;;;;;;18.4;8.7;;;;;;;;;;;;;
2020/04/21 10:08:35;;;;;;;40.5;16.4;;;;;;;;;;;;;
2020/04/21 10:10:56;;;;;;;57.9;26.1;;;;;;;;;;;;;
2020/04/21 10:13:58;;;;;;;50;21.1;;;;;;;;;;;;;
2020/04/21 10:15:45;;;;;;;57.5;23.1;;;;;;;;;;;;;
2020/04/21 10:18:15;;;;;;;23.4;11.2;;;;;;;;;;;;;
2020/04/21 10:20:52;;;;;;;29.2;13.5;;;;;;;;;;;;;
2020/04/21 10:25:36;;;;;;;21.7;9.9;;;;;;;;;;;;;
2020/04/21 10:30:16;;;;;;;14.4;6.7;;;;;;;;;;;;;
2020/04/21 10:32:43;;;;;;;15.8;8.5;;;;;;;;;;;;;
2020/04/21 10:37:54;;;;;;;7.2;4.5;;;;;;;;;;;;;
2020/04/21 10:40:15;;;;;;;7.8;4.5;;;;;;;;;;;;;
2020/04/21 10:42:23;;;;;;;8.4;4.6;;;;;;;;;;;;;
2020/04/21 10:44:47;;;;;;;7.1;4.8;;;;;;;;;;;;;
2020/04/21 10:47:15;;;;;;;8;4.7;;;;;;;;;;;;;
2020/04/21 10:52:06;;;;;;;8;4.7;;;;;;;;;;;;;
2020/04/21 10:54:44;;;;;;;8.6;5.3;;;;;;;;;;;;;
2020/04/21 10:57:07;;;;;;;7.8;4.5;;;;;;;;;;;;;
2020/04/21 10:59:26;;;;;;;7.3;4.4;;;;;;;;;;;;;
2020/04/21 11:01:52;;;;;;;8;4.4;;;;;;;;;;;;;
2020/04/21 11:04:29;;;;;;;8.5;4.5;;;;;;;;;;;;;
2020/04/21 11:06:42;;;;;;;6.7;4.4;;;;;;;;;;;;;
2020/04/21 11:09:09;;;;;;;6.7;4.7;;;;;;;;;;;;;
2020/04/21 11:11:24;;;;;;;12.7;5.5;;;;;;;;;;;;;
2020/04/21 11:14:23;;;;;;;13.1;7.8;;;;;;;;;;;;;
2020/04/21 11:16:16;;;;;;;8.7;4.7;;;;;;;;;;;;;
2020/04/21 11:18:39;;;;;;;23.3;14.2;;;;;;;;;;;;;
2020/04/21 11:21:06;;;;;;;8.2;5;;;;;;;;;;;;;
2020/04/21 11:25:53;;;;;;;8.8;4.6;;;;;;;;;;;;;
2020/04/21 11:28:19;;;;;;;7.5;4.3;;;;;;;;;;;;;
2020/04/21 11:35:47;;;;;;;7.6;4.5;;;;;;;;;;;;;
2020/04/21 11:38:21;;;;;;;7;5;;;;;;;;;;;;;
2020/04/21 11:45:27;;;;;;;14.5;7.5;;;;;;;;;;;;;
2020/04/21 11:52:40;;;;;;;9.4;4.6;;;;;;;;;;;;;
2020/04/21 11:55:48;;;;;;;7;4;;;;;;;;;;;;;
2020/04/21 11:57:41;;;;;;;7.3;4.5;;;;;;;;;;;;;
2020/04/21 11:59:51;;;;;;;7.2;4.5;;;;;;;;;;;;;
2020/04/21 12:02:28;;;;;;;7.9;4.1;;;;;;;;;;;;;
2020/04/21 12:04:37;;;;;;;6.2;4.2;;;;;;;;;;;;;
2020/04/21 12:06:54;;;;;;;7.4;4;;;;;;;;;;;;;
2020/04/21 12:09:19;;;;;;;9.2;4.6;;;;;;;;;;;;;
2020/04/21 12:11:44;;;;;;;8.7;4.4;;;;;;;;;;;;;
2020/04/21 12:14:10;;;;;;;6.3;3.8;;;;;;;;;;;;;
2020/04/21 12:16:35;;;;;;;8.6;4.2;;;;;;;;;;;;;
2020/04/21 12:19:00;;;;;;;6.7;3.9;;;;;;;;;;;;;
2020/04/21 12:21:25;;;;;;;6.6;3.9;;;;;;;;;;;;;
2020/04/21 12:23:50;;;;;;;6.1;4.1;;;;;;;;;;;;;
2020/04/21 12:26:15;;;;;;;7.2;4;;;;;;;;;;;;;
2020/04/21 12:28:40;;;;;;;7.5;4.1;;;;;;;;;;;;;
2020/04/21 12:31:05;;;;;;;6.6;3.7;;;;;;;;;;;;;
2020/04/21 12:33:30;;;;;;;8.3;3.9;;;;;;;;;;;;;
2020/04/21 12:35:55;;;;;;;7.8;3.9;;;;;;;;;;;;;
2020/04/21 12:38:21;;;;;;;7;3.6;;;;;;;;;;;;;
2020/04/21 12:40:46;;;;;;;7.3;3.9;;;;;;;;;;;;;
2020/04/21 12:43:12;;;;;;;8.7;3.7;;;;;;;;;;;;;
2020/04/21 12:45:37;;;;;;;7;3.7;;;;;;;;;;;;;
2020/04/21 12:48:02;;;;;;;7.8;4;;;;;;;;;;;;;
2020/04/21 12:50:27;;;;;;;6.3;3.6;;;;;;;;;;;;;
2020/04/21 12:52:52;;;;;;;5.7;3.7;;;;;;;;;;;;;
2020/04/21 12:55:18;;;;;;;7.2;4;;;;;;;;;;;;;
2020/04/21 12:57:43;;;;;;;7.1;3.6;;;;;;;;;;;;;
2020/04/21 13:00:08;;;;;;;6;3.7;;;;;;;;;;;;;
2020/04/21 13:02:33;;;;;;;8.5;3.6;;;;;;;;;;;;;
2020/04/21 13:04:58;;;;;;;8.4;3.7;;;;;;;;;;;;;
2020/04/21 13:07:23;;;;;;;9;3.5;;;;;;;;;;;;;
2020/04/21 13:09:49;;;;;;;5.8;3.4;;;;;;;;;;;;;
2020/04/21 13:12:14;;;;;;;7.4;3.3;;;;;;;;;;;;;
2020/04/21 13:14:39;;;;;;;6.9;3.5;;;;;;;;;;;;;
2020/04/21 13:17:04;;;;;;;7.9;3.5;;;;;;;;;;;;;
2020/04/21 13:19:29;;;;;;;8.4;3.6;;;;;;;;;;;;;
2020/04/21 13:21:55;;;;;;;9;3.5;;;;;;;;;;;;;
2020/04/21 13:24:20;;;;;;;5.6;3.3;;;;;;;;;;;;;
2020/04/21 13:26:45;;;;;;;7.7;4;;;;;;;;;;;;;
2020/04/21 13:29:11;;;;;;;6.6;3.6;;;;;;;;;;;;;
2020/04/21 13:31:36;;;;;;;6;3.3;;;;;;;;;;;;;
2020/04/21 13:34:03;;;;;;;7.1;3.2;;;;;;;;;;;;;
2020/04/21 13:36:29;;;;;;;5.5;3.3;;;;;;;;;;;;;
2020/04/21 13:38:54;;;;;;;5.2;3.5;;;;;;;;;;;;;
2020/04/21 13:41:20;;;;;;;7.9;3.3;;;;;;;;;;;;;
2020/04/21 13:43:45;;;;;;;7.7;3.2;;;;;;;;;;;;;
2020/04/21 13:46:11;;;;;;;6.9;3.3;;;;;;;;;;;;;
2020/04/21 13:48:36;;;;;;;5;3.1;;;;;;;;;;;;;
2020/04/21 13:51:01;;;;;;;6.8;3.1;;;;;;;;;;;;;
2020/04/21 13:53:26;;;;;;;5.7;3.3;;;;;;;;;;;;;
2020/04/21 13:55:51;;;;;;;5.7;3;;;;;;;;;;;;;
2020/04/21 13:58:17;;;;;;;6.4;2.7;;;;;;;;;;;;;
2020/04/21 14:00:42;;;;;;;4.9;2.8;;;;;;;;;;;;;
2020/04/21 14:03:08;;;;;;;5.6;3.1;;;;;;;;;;;;;
2020/04/21 14:05:33;;;;;;;10.9;3.2;;;;;;;;;;;;;
2020/04/21 14:07:58;;;;;;;8.6;3;;;;;;;;;;;;;
2020/04/21 14:10:24;;;;;;;8.4;3.1;;;;;;;;;;;;;
2020/04/21 14:12:49;;;;;;;5.2;2.7;;;;;;;;;;;;;
2020/04/21 14:15:14;;;;;;;6.9;3.1;;;;;;;;;;;;;
2020/04/21 14:17:39;;;;;;;5.3;3.1;;;;;;;;;;;;;
2020/04/21 14:20:05;;;;;;;7.6;3.3;;;;;;;;;;;;;
2020/04/21 14:22:30;;;;;;;7.7;3.1;;;;;;;;;;;;;
2020/04/21 14:24:55;;;;;;;5.1;3.2;;;;;;;;;;;;;
2020/04/21 14:27:26;;;;;;;9.4;3.6;;;;;;;;;;;;;
2020/04/21 14:29:51;;;;;;;4.7;2.7;;;;;;;;;;;;;
2020/04/21 14:32:16;;;;;;;9.3;3.1;;;;;;;;;;;;;
2020/04/21 14:34:41;;;;;;;5.6;3.3;;;;;;;;;;;;;
2020/04/21 14:37:06;;;;;;;7.2;3.2;;;;;;;;;;;;;
2020/04/21 14:39:32;;;;;;;8.1;3.2;;;;;;;;;;;;;
2020/04/21 14:41:57;;;;;;;5.4;3;;;;;;;;;;;;;
2020/04/21 14:44:22;;;;;;;9.1;3.7;;;;;;;;;;;;;
2020/04/21 14:46:47;;;;;;;6.7;3.2;;;;;;;;;;;;;
2020/04/21 14:49:12;;;;;;;7.4;3.5;;;;;;;;;;;;;
2020/04/21 14:51:38;;;;;;;7.2;3.4;;;;;;;;;;;;;
2020/04/21 14:54:03;;;;;;;5.7;3.1;;;;;;;;;;;;;
2020/04/21 14:56:29;;;;;;;5;3.1;;;;;;;;;;;;;
2020/04/21 14:58:54;;;;;;;8.9;3.5;;;;;;;;;;;;;
2020/04/21 15:01:19;;;;;;;8.7;3.3;;;;;;;;;;;;;
2020/04/21 15:03:44;;;;;;;7.2;3.5;;;;;;;;;;;;;
2020/04/21 15:06:09;;;;;;;8.6;3.5;;;;;;;;;;;;;
2020/04/21 15:08:34;;;;;;;5.8;3.1;;;;;;;;;;;;;
2020/04/21 15:10:59;;;;;;;6.1;3.2;;;;;;;;;;;;;
2020/04/21 15:13:29;;;;;;;7.3;3.2;;;;;;;;;;;;;
2020/04/21 15:15:49;;;;;;;6.5;2.9;;;;;;;;;;;;;
2020/04/21 15:18:14;;;;;;;7.7;3.2;;;;;;;;;;;;;
2020/04/21 15:20:39;;;;;;;6.6;2.8;;;;;;;;;;;;;
2020/04/21 15:23:05;;;;;;;5.8;3;;;;;;;;;;;;;
2020/04/21 15:25:30;;;;;;;5.8;2.8;;;;;;;;;;;;;
2020/04/21 15:27:55;;;;;;;5.7;2.6;;;;;;;;;;;;;
2020/04/21 15:30:20;;;;;;;7.2;2.8;;;;;;;;;;;;;
2020/04/21 15:32:45;;;;;;;7;2.9;;;;;;;;;;;;;
2020/04/21 15:35:10;;;;;;;7.1;2.7;;;;;;;;;;;;;
2020/04/21 15:37:35;;;;;;;5;2.7;;;;;;;;;;;;;
2020/04/21 15:40:00;;;;;;;5.8;2.9;;;;;;;;;;;;;
2020/04/21 15:42:26;;;;;;;6.9;2.7;;;;;;;;;;;;;
2020/04/21 15:44:51;;;;;;;5.9;2.6;;;;;;;;;;;;;
2020/04/21 15:47:16;;;;;;;5.9;2.6;;;;;;;;;;;;;
2020/04/21 15:49:41;;;;;;;5.8;2.7;;;;;;;;;;;;;
2020/04/21 15:52:07;;;;;;;5.7;2.7;;;;;;;;;;;;;
2020/04/21 15:54:32;;;;;;;3.6;2.3;;;;;;;;;;;;;
2020/04/21 15:56:57;;;;;;;10.2;2.7;;;;;;;;;;;;;
2020/04/21 15:59:22;;;;;;;7.7;2.2;;;;;;;;;;;;;
2020/04/21 16:01:47;;;;;;;4.6;2.3;;;;;;;;;;;;;
2020/04/21 16:04:12;;;;;;;5.1;2.1;;;;;;;;;;;;;
2020/04/21 16:06:37;;;;;;;6.1;2.3;;;;;;;;;;;;;
2020/04/21 16:09:03;;;;;;;5.9;2.4;;;;;;;;;;;;;
2020/04/21 16:11:28;;;;;;;5.7;2.3;;;;;;;;;;;;;
2020/04/21 16:13:53;;;;;;;9.3;2.4;;;;;;;;;;;;;
2020/04/21 16:16:18;;;;;;;7.8;2.5;;;;;;;;;;;;;
2020/04/21 16:18:43;;;;;;;7.4;2.4;;;;;;;;;;;;;
2020/04/21 16:21:09;;;;;;;9.4;2.3;;;;;;;;;;;;;
2020/04/21 16:23:34;;;;;;;5.7;2.1;;;;;;;;;;;;;
2020/04/21 16:26:00;;;;;;;7.3;2.4;;;;;;;;;;;;;
2020/04/21 16:28:26;;;;;;;7.9;2.5;;;;;;;;;;;;;
2020/04/21 16:30:51;;;;;;;8.6;2.4;;;;;;;;;;;;;
2020/04/21 16:33:16;;;;;;;6.8;2.1;;;;;;;;;;;;;
2020/04/21 16:35:41;;;;;;;6.5;2.4;;;;;;;;;;;;;
2020/04/21 16:38:06;;;;;;;5.2;2.2;;;;;;;;;;;;;
2020/04/21 16:40:31;;;;;;;8.2;2.2;;;;;;;;;;;;;
2020/04/21 16:42:56;;;;;;;4.7;2.1;;;;;;;;;;;;;
2020/04/21 16:45:23;;;;;;;7.2;2.4;;;;;;;;;;;;;
2020/04/21 16:47:48;;;;;;;4;2.2;;;;;;;;;;;;;
2020/04/21 16:50:14;;;;;;;6.1;2.2;;;;;;;;;;;;;
2020/04/21 16:52:39;;;;;;;6.8;2.1;;;;;;;;;;;;;
2020/04/21 16:55:05;;;;;;;5.9;2.5;;;;;;;;;;;;;
2020/04/21 16:57:30;;;;;;;6;2.5;;;;;;;;;;;;;
2020/04/21 16:59:57;;;;;;;7.2;2.3;;;;;;;;;;;;;
2020/04/21 17:02:22;;;;;;;7.3;2.6;;;;;;;;;;;;;
2020/04/21 17:04:48;;;;;;;7.1;2.5;;;;;;;;;;;;;
2020/04/21 17:07:13;;;;;;;7;2.3;;;;;;;;;;;;;
2020/04/21 17:09:39;;;;;;;7.7;2.6;;;;;;;;;;;;;
2020/04/21 17:12:04;;;;;;;8.2;2.3;;;;;;;;;;;;;
2020/04/21 17:14:31;;;;;;;5.7;2.2;;;;;;;;;;;;;
2020/04/21 17:16:56;;;;;;;2.9;2.1;;;;;;;;;;;;;
2020/04/21 17:19:23;;;;;;;6.8;2.5;;;;;;;;;;;;;
2020/04/21 17:21:48;;;;;;;5.9;2.3;;;;;;;;;;;;;
2020/04/21 17:24:14;;;;;;;4.5;2.2;;;;;;;;;;;;;
2020/04/21 17:26:39;;;;;;;6.3;2.4;;;;;;;;;;;;;
2020/04/21 17:29:05;;;;;;;6.4;2.3;;;;;;;;;;;;;
2020/04/21 17:31:31;;;;;;;7.2;2.5;;;;;;;;;;;;;
2020/04/21 17:33:57;;;;;;;8.3;2.3;;;;;;;;;;;;;
2020/04/21 17:36:22;;;;;;;5.4;2.3;;;;;;;;;;;;;
2020/04/21 17:38:49;;;;;;;5.3;2.2;;;;;;;;;;;;;
2020/04/21 17:41:14;;;;;;;5.9;2.4;;;;;;;;;;;;;
2020/04/21 17:43:40;;;;;;;4.5;2.3;;;;;;;;;;;;;
2020/04/21 17:46:05;;;;;;;7.9;2.4;;;;;;;;;;;;;
2020/04/21 17:48:31;;;;;;;8.9;2.5;;;;;;;;;;;;;
2020/04/21 17:50:56;;;;;;;7.2;2.6;;;;;;;;;;;;;
2020/04/21 17:53:23;;;;;;;7.4;2.6;;;;;;;;;;;;;
2020/04/21 17:55:48;;;;;;;7;2.3;;;;;;;;;;;;;
2020/04/21 17:58:14;;;;;;;5.1;2.6;;;;;;;;;;;;;
2020/04/21 18:00:39;;;;;;;7.9;2.5;;;;;;;;;;;;;
2020/04/21 18:03:06;;;;;;;6.4;2.4;;;;;;;;;;;;;
2020/04/21 18:05:31;;;;;;;7;2.4;;;;;;;;;;;;;
2020/04/21 18:07:57;;;;;;;9.4;2.5;;;;;;;;;;;;;
2020/04/21 18:10:22;;;;;;;7.1;2.7;;;;;;;;;;;;;
2020/04/21 18:12:48;;;;;;;10.8;2.4;;;;;;;;;;;;;
2020/04/21 18:15:13;;;;;;;9.2;2.6;;;;;;;;;;;;;
2020/04/21 18:17:40;;;;;;;8.4;2.9;;;;;;;;;;;;;
2020/04/21 18:20:05;;;;;;;7.8;2.6;;;;;;;;;;;;;
2020/04/21 18:22:31;;;;;;;6.4;2.7;;;;;;;;;;;;;
2020/04/21 18:24:56;;;;;;;8.4;2.7;;;;;;;;;;;;;
2020/04/21 18:27:23;;;;;;;7;3.1;;;;;;;;;;;;;
2020/04/21 18:29:48;;;;;;;8.4;2.5;;;;;;;;;;;;;
2020/04/21 18:32:14;;;;;;;6.1;2.4;;;;;;;;;;;;;
2020/04/21 18:34:39;;;;;;;7;2.4;;;;;;;;;;;;;
2020/04/21 18:37:05;;;;;;;5;2.5;;;;;;;;;;;;;
2020/04/21 18:39:30;;;;;;;6.8;2.7;;;;;;;;;;;;;
2020/04/21 18:41:56;;;;;;;5.7;2.5;;;;;;;;;;;;;
2020/04/21 18:44:22;;;;;;;7.3;2.3;;;;;;;;;;;;;
2020/04/21 18:46:49;;;;;;;10.4;2.7;;;;;;;;;;;;;
2020/04/21 18:49:14;;;;;;;5.9;2.5;;;;;;;;;;;;;
2020/04/21 18:51:42;;;;;;;12.7;2.8;;;;;;;;;;;;;
2020/04/21 18:54:07;;;;;;;5.6;2.7;;;;;;;;;;;;;
2020/04/21 18:56:34;;;;;;;8.8;2.7;;;;;;;;;;;;;
2020/04/21 18:58:59;;;;;;;8.6;3.1;;;;;;;;;;;;;
2020/04/21 19:01:25;;;;;;;8.5;2.5;;;;;;;;;;;;;
2020/04/21 19:03:50;;;;;;;6.6;2.5;;;;;;;;;;;;;
2020/04/21 19:06:16;;;;;;;9.4;2.5;;;;;;;;;;;;;
2020/04/21 19:08:41;;;;;;;6;2.6;;;;;;;;;;;;;
2020/04/21 19:11:08;;;;;;;5.3;2.7;;;;;;;;;;;;;
2020/04/21 19:13:33;;;;;;;5.8;2.6;;;;;;;;;;;;;
2020/04/21 19:15:59;;;;;;;7.9;2.7;;;;;;;;;;;;;
2020/04/21 19:18:24;;;;;;;9.9;2.8;;;;;;;;;;;;;
2020/04/21 19:20:50;;;;;;;7.5;2.9;;;;;;;;;;;;;
2020/04/21 19:23:15;;;;;;;10.6;2.8;;;;;;;;;;;;;
2020/04/21 19:25:42;;;;;;;5.9;2.7;;;;;;;;;;;;;
2020/04/21 19:28:07;;;;;;;8.4;2.7;;;;;;;;;;;;;
2020/04/21 19:30:33;;;;;;;7.1;2.9;;;;;;;;;;;;;
2020/04/21 19:32:58;;;;;;;6.5;2.5;;;;;;;;;;;;;
2020/04/21 19:35:26;;;;;;;5.5;2.8;;;;;;;;;;;;;
2020/04/21 19:37:50;;;;;;;9.1;2.6;;;;;;;;;;;;;
2020/04/21 19:40:17;;;;;;;6.6;2.9;;;;;;;;;;;;;
2020/04/21 19:42:43;;;;;;;7.7;2.8;;;;;;;;;;;;;
2020/04/21 19:45:09;;;;;;;5.9;3.1;;;;;;;;;;;;;
2020/04/21 19:47:34;;;;;;;6.9;3;;;;;;;;;;;;;
2020/04/21 19:50:00;;;;;;;4.6;3.2;;;;;;;;;;;;;
2020/04/21 19:52:25;;;;;;;7.8;3.5;;;;;;;;;;;;;
2020/04/21 19:54:52;;;;;;;7.1;3.4;;;;;;;;;;;;;
2020/04/21 19:57:17;;;;;;;7.9;3.5;;;;;;;;;;;;;
2020/04/21 19:59:43;;;;;;;7.4;3.4;;;;;;;;;;;;;
2020/04/21 20:02:08;;;;;;;7.3;3.6;;;;;;;;;;;;;
2020/04/21 20:04:35;;;;;;;7.8;3.6;;;;;;;;;;;;;
2020/04/21 20:07:00;;;;;;;7.2;3.4;;;;;;;;;;;;;
2020/04/21 20:09:26;;;;;;;6.3;4.4;;;;;;;;;;;;;
2020/04/21 20:11:51;;;;;;;11.3;4.6;;;;;;;;;;;;;
2020/04/21 20:14:17;;;;;;;8.3;3.7;;;;;;;;;;;;;
2020/04/21 20:16:43;;;;;;;8;3.6;;;;;;;;;;;;;
2020/04/21 20:19:09;;;;;;;8.6;3.6;;;;;;;;;;;;;
2020/04/21 20:21:34;;;;;;;7.9;3.6;;;;;;;;;;;;;
2020/04/21 20:24:01;;;;;;;7.5;3.5;;;;;;;;;;;;;
2020/04/21 20:26:26;;;;;;;9.1;3.4;;;;;;;;;;;;;
2020/04/21 20:28:55;;;;;;;8.8;4.2;;;;;;;;;;;;;
2020/04/21 20:32:52;;;;;;;7.9;4;;;;;;;;;;;;;
2020/04/21 20:35:47;;;;;;;6.8;3.8;;;;;;;;;;;;;
2020/04/21 20:38:22;;;;;;;8.3;3.7;;;;;;;;;;;;;
2020/04/21 20:40:43;;;;;;;10.8;4.3;;;;;;;;;;;;;
2020/04/21 20:46:06;;;;;;;9.4;4.1;;;;;;;;;;;;;
2020/04/21 20:48:23;;;;;;;8.4;4.7;;;;;;;;;;;;;
2020/04/21 20:50:25;;;;;;;11.7;4.5;;;;;;;;;;;;;
2020/04/21 20:55:37;;;;;;;9.4;4;;;;;;;;;;;;;
2020/04/21 21:00:25;;;;;;;10.3;4.2;;;;;;;;;;;;;
2020/04/21 21:02:43;;;;;;;8.4;4.2;;;;;;;;;;;;;
2020/04/21 21:12:23;;;;;;;13.5;4.4;;;;;;;;;;;;;
2020/04/21 21:24:29;;;;;;;6.3;3.8;;;;;;;;;;;;;
2020/04/21 21:31:59;;;;;;;8.5;3.9;;;;;;;;;;;;;
2020/04/21 21:34:48;;;;;;;6.6;3.4;;;;;;;;;;;;;
2020/04/21 21:48:47;;;;;;;7.1;3.9;;;;;;;;;;;;;
2020/04/21 21:53:41;;;;;;;6.7;3.8;;;;;;;;;;;;;
2020/04/21 21:56:27;;;;;;;6.8;3.7;;;;;;;;;;;;;
2020/04/21 21:58:27;;;;;;;5.8;3.8;;;;;;;;;;;;;
2020/04/21 22:07:59;;;;;;;7;3.9;;;;;;;;;;;;;
2020/04/21 22:10:44;;;;;;;8.1;4.7;;;;;;;;;;;;;
2020/04/21 22:17:45;;;;;;;11.6;4.6;;;;;;;;;;;;;
2020/04/21 22:20:43;;;;;;;9.4;4.7;;;;;;;;;;;;;
2020/04/21 22:24:54;;;;;;;6.9;4.1;;;;;;;;;;;;;
2020/04/21 22:27:18;;;;;;;6.5;4.2;;;;;;;;;;;;;
2020/04/21 22:34:54;;;;;;;15.1;10.1;;;;;;;;;;;;;
2020/04/21 22:37:09;;;;;;;13.9;9.1;;;;;;;;;;;;;
2020/04/21 22:39:25;;;;;;;13.4;8.4;;;;;;;;;;;;;
2020/04/21 22:41:52;;;;;;;10.6;6.1;;;;;;;;;;;;;
2020/04/21 22:47:19;;;;;;;7.4;5;;;;;;;;;;;;;
2020/04/21 22:54:01;;;;;;;5.8;4.1;;;;;;;;;;;;;
2020/04/21 22:56:27;;;;;;;5.9;3.8;;;;;;;;;;;;;
2020/04/21 23:01:18;;;;;;;8.1;3.6;;;;;;;;;;;;;
2020/04/21 23:06:18;;;;;;;6.1;3.7;;;;;;;;;;;;;